Orlando, OK (73073)

9:05 AM CST on February 11, 2016 (GMT -0600)
West of Stillwater | | Change Station
CLOSE
Current Station
Personal Weather Station
Location: Stillwater, OK
Elevation: 1004 ft
Nearby Weather Stations

Elev 1004 ft 36.10 °N, 97.14 °W | Updated 21 seconds ago

Clear
Clear
38.8 °F
Feels Like 34 °F
N
6.3
Wind Variable Wind from North
Gusts 8.3 mph

Today
High -- | Low -- °F
--% Chance of Precip.
Yesterday
High -- | Low -- °F
Precip. -- in
Pressure 30.19 in
Visibility 10.0 miles
Clouds Clear
Windchill 34 °F
Dew Point 24 °F
Humidity 55%
Rainfall 0.00 in
Snow Depth Not available.
7:21 AM 6:06 PM
Waxing Crescent, 12% visible
METAR KGOK 111453Z AUTO VRB03KT 10SM CLR 05/M01 A3018 RMK AO2 SLP224 T00501006 53021
Pressure 30.19 in
Visibility 10.0 miles
Clouds Clear
Windchill 34 °F
Dew Point 24 °F
Humidity 55%
Rainfall 0.00 in
Snow Depth Not available.
7:21 AM 6:06 PM
Waxing Crescent, 12% visible
METAR KGOK 111453Z AUTO VRB03KT 10SM CLR 05/M01 A3018 RMK AO2 SLP224 T00501006 53021

10-Day Weather Forecast

Almanac

Astronomy

Feb. 11, 2016 Rise Set
Actual Time
Civil Twilight
Nautical Twilight
Astronomical Twilight
Moon
Length of Visible Light
Length of Day
Tomorrow will be .
, % of the Moon is Illuminated

Today's Extremes

State Highs State Lows

Community

WunderPhotos

Upload Photos

1,892,059 photos uploaded!

WunderBlog® & News

Nearby

Air Quality

  Air Quality AQ Index Pollutant
Not available.

Snow Depth

Station Depth Elevation

Earthquake Activity

City Distance Mag. Time & Date
Minimum magnitude displayed is 2.5.

Coastal Water Temperatures

Place Temperature

Stations

Nearby Weather Stations

Station Location Temp. Windchill Dew Point Humidity Wind Precip. Elev Updated Type
                   

Watches & Warnings

There are currently no watches in effect.